Cow Head, Canada
Current Conditions -  °F | °C
As of 4:00 AM on Sunday 23 Nov 2014 (Local Time) from CWDH Reporting Station
Scattered Clouds Scattered Clouds  
Wind Chill: 18°   Ceiling: Unl
Heat Index: 31°   Visibility: 9mi
Dew Point: 20°   Wind: 21mph
Humidity: 65%   Direction: 250°WSW
Pressure: 29.5"   Gusts: 33mph
Location:  49.92°N, 57.9°W
Report Text: CWDH 230700Z AUTO 25018G29KT 9SM SCT023 M01/M06 A2950 RMK SLP991 PK WND 25031/// T10061064 70006 WSI/SWOB
Loading
Personal Weather Stations






























Interactive Weather Map New forecast layout! Learn more

10-Day Weather Forecast

Advertisements
Track Severe Weather on mobile